Terminal Aerodrome Forecast
Issued by NWS Sterling, VA

Home | Current Version | Previous Version | Text Only | Print | Product List | Glossary On
Versions: 1 2 3 4 5 6 7 8 9 10 11 12 13 14 15 16 17 18 19 20 21 22
000
FTUS41 KLWX 160800 AAB
TAFDCA
TAF AMD
KDCA 160848Z 1609/1706 23004KT P6SM SCT040 BKN250
     FM161300 29006KT P6SM BKN060
     FM161400 31007KT P6SM SCT060
     FM170200 01005KT P6SM FEW070=

USA.gov is the U.S. government's official web portal to all federal, state and local government web resources and services.